sensor_id;sensor_type;location;lat;lon;timestamp;noise_LAeq;noise_LA_min;noise_LA_max;noise_LA01;noise_LA95
66589;Laerm;53447;49.272;11.070;2023-11-18T00:00:06;41.45;37.17;43.19;;
66589;Laerm;53447;49.272;11.070;2023-11-18T00:02:37;42.06;37.31;45.74;;
66589;Laerm;53447;49.272;11.070;2023-11-18T00:05:03;40.84;33.54;43.75;;
66589;Laerm;53447;49.272;11.070;2023-11-18T00:07:28;38.41;30.18;41.59;;
66589;Laerm;53447;49.272;11.070;2023-11-18T00:09:54;39.82;33.86;43.01;;
66589;Laerm;53447;49.272;11.070;2023-11-18T00:12:19;38.26;31.43;41.48;;
66589;Laerm;53447;49.272;11.070;2023-11-18T00:14:44;39.24;32.81;49.53;;
66589;Laerm;53447;49.272;11.070;2023-11-18T00:17:10;38.98;34.44;47.13;;
66589;Laerm;53447;49.272;11.070;2023-11-18T00:19:37;40.19;33.86;46.57;;
66589;Laerm;53447;49.272;11.070;2023-11-18T00:22:02;39.58;33.86;50.06;;
66589;Laerm;53447;49.272;11.070;2023-11-18T00:24:28;40.78;34.44;46.01;;
66589;Laerm;53447;49.272;11.070;2023-11-18T00:26:53;39.10;32.81;42.69;;
66589;Laerm;53447;49.272;11.070;2023-11-18T00:29:18;40.61;33.86;43.15;;
66589;Laerm;53447;49.272;11.070;2023-11-18T00:31:43;41.41;37.58;44.55;;
66589;Laerm;53447;49.272;11.070;2023-11-18T00:34:09;39.85;33.19;43.04;;
66589;Laerm;53447;49.272;11.070;2023-11-18T00:36:36;38.74;32.81;41.74;;
66589;Laerm;53447;49.272;11.070;2023-11-18T00:39:01;38.65;33.19;41.64;;
66589;Laerm;53447;49.272;11.070;2023-11-18T00:41:26;38.50;32.81;41.74;;
66589;Laerm;53447;49.272;11.070;2023-11-18T00:43:51;38.83;32.81;42.31;;
66589;Laerm;53447;49.272;11.070;2023-11-18T00:46:18;38.49;31.94;41.89;;
66589;Laerm;53447;49.272;11.070;2023-11-18T00:48:43;38.46;33.19;41.94;;
66589;Laerm;53447;49.272;11.070;2023-11-18T00:51:09;38.66;33.19;42.08;;
66589;Laerm;53447;49.272;11.070;2023-11-18T00:53:34;38.49;32.81;41.74;;
66589;Laerm;53447;49.272;11.070;2023-11-18T00:55:59;40.98;34.16;43.19;;
66589;Laerm;53447;49.272;11.070;2023-11-18T00:58:25;41.52;36.03;44.51;;
66589;Laerm;53447;49.272;11.070;2023-11-18T01:00:51;39.76;33.19;43.51;;
66589;Laerm;53447;49.272;11.070;2023-11-18T01:03:16;38.57;33.19;41.59;;
66589;Laerm;53447;49.272;11.070;2023-11-18T01:05:41;38.62;32.81;41.48;;
66589;Laerm;53447;49.272;11.070;2023-11-18T01:08:06;38.67;32.81;41.69;;
66589;Laerm;53447;49.272;11.070;2023-11-18T01:10:32;40.35;34.44;43.44;;
66589;Laerm;53447;49.272;11.070;2023-11-18T01:12:57;39.04;33.54;42.53;;
66589;Laerm;53447;49.272;11.070;2023-11-18T01:15:23;39.23;32.81;42.04;;
66589;Laerm;53447;49.272;11.070;2023-11-18T01:17:48;38.58;31.43;41.54;;
66589;Laerm;53447;49.272;11.070;2023-11-18T01:20:13;38.94;32.40;44.65;;
66589;Laerm;53447;49.272;11.070;2023-11-18T01:22:39;40.64;33.19;43.30;;
66589;Laerm;53447;49.272;11.070;2023-11-18T01:25:06;41.44;37.71;43.33;;
66589;Laerm;53447;49.272;11.070;2023-11-18T01:27:31;48.28;36.38;65.61;;
66589;Laerm;53447;49.272;11.070;2023-11-18T01:29:58;39.66;34.16;51.58;;
66589;Laerm;53447;49.272;11.070;2023-11-18T01:32:24;39.06;33.86;41.54;;
66589;Laerm;53447;49.272;11.070;2023-11-18T01:34:50;39.94;34.70;49.71;;
66589;Laerm;53447;49.272;11.070;2023-11-18T01:37:16;38.44;32.40;41.26;;
66589;Laerm;53447;49.272;11.070;2023-11-18T01:39:41;39.35;32.40;45.32;;
66589;Laerm;53447;49.272;11.070;2023-11-18T01:42:06;39.15;33.54;43.08;;
66589;Laerm;53447;49.272;11.070;2023-11-18T01:44:32;38.62;33.54;41.74;;
66589;Laerm;53447;49.272;11.070;2023-11-18T01:46:58;38.35;32.81;41.69;;
66589;Laerm;53447;49.272;11.070;2023-11-18T01:49:24;38.87;33.19;42.85;;
66589;Laerm;53447;49.272;11.070;2023-11-18T01:51:52;41.29;36.97;43.30;;
66589;Laerm;53447;49.272;11.070;2023-11-18T01:54:17;41.21;34.09;43.01;;
66589;Laerm;53447;49.272;11.070;2023-11-18T01:56:45;38.34;31.94;41.59;;
66589;Laerm;53447;49.272;11.070;2023-11-18T01:59:11;38.21;31.94;41.26;;
66589;Laerm;53447;49.272;11.070;2023-11-18T02:01:43;38.48;32.81;43.15;;
66589;Laerm;53447;49.272;11.070;2023-11-18T02:04:08;38.25;32.40;41.43;;
66589;Laerm;53447;49.272;11.070;2023-11-18T02:06:33;38.18;31.94;41.43;;
66589;Laerm;53447;49.272;11.070;2023-11-18T02:08:58;38.02;30.85;41.21;;
66589;Laerm;53447;49.272;11.070;2023-11-18T02:11:28;38.16;31.94;47.73;;
66589;Laerm;53447;49.272;11.070;2023-11-18T02:13:54;38.21;31.43;42.39;;
66589;Laerm;53447;49.272;11.070;2023-11-18T02:16:24;38.14;31.94;41.48;;
66589;Laerm;53447;49.272;11.070;2023-11-18T02:18:50;39.11;30.85;43.04;;
66589;Laerm;53447;49.272;11.070;2023-11-18T02:21:18;41.26;37.17;43.26;;
66589;Laerm;53447;49.272;11.070;2023-11-18T02:23:44;40.50;32.40;42.97;;
66589;Laerm;53447;49.272;11.070;2023-11-18T02:26:09;38.70;31.94;43.44;;
66589;Laerm;53447;49.272;11.070;2023-11-18T02:28:34;38.48;32.40;41.38;;
66589;Laerm;53447;49.272;11.070;2023-11-18T02:31:02;38.69;31.94;41.43;;
66589;Laerm;53447;49.272;11.070;2023-11-18T02:33:36;39.84;33.54;44.07;;
66589;Laerm;53447;49.272;11.070;2023-11-18T02:36:23;38.76;32.81;41.59;;
66589;Laerm;53447;49.272;11.070;2023-11-18T02:38:51;38.68;31.94;41.99;;
66589;Laerm;53447;49.272;11.070;2023-11-18T02:41:20;39.41;31.43;43.30;;
66589;Laerm;53447;49.272;11.070;2023-11-18T02:43:45;41.35;37.31;43.04;;
66589;Laerm;53447;49.272;11.070;2023-11-18T02:46:12;40.30;33.19;43.08;;
66589;Laerm;53447;49.272;11.070;2023-11-18T02:48:40;41.13;33.54;44.88;;
66589;Laerm;53447;49.272;11.070;2023-11-18T02:51:06;42.69;39.64;45.23;;
66589;Laerm;53447;49.272;11.070;2023-11-18T02:53:33;42.31;40.53;44.73;;
66589;Laerm;53447;49.272;11.070;2023-11-18T02:55:59;42.34;40.53;43.92;;
66589;Laerm;53447;49.272;11.070;2023-11-18T02:58:28;43.10;41.32;58.55;;
66589;Laerm;53447;49.272;11.070;2023-11-18T03:00:54;42.23;40.66;44.19;;
66589;Laerm;53447;49.272;11.070;2023-11-18T03:03:19;41.87;39.88;43.19;;
66589;Laerm;53447;49.272;11.070;2023-11-18T03:05:45;41.99;40.18;43.45;;
66589;Laerm;53447;49.272;11.070;2023-11-18T03:08:13;42.44;40.39;43.73;;
66589;Laerm;53447;49.272;11.070;2023-11-18T03:10:39;42.56;40.46;44.01;;
66589;Laerm;53447;49.272;11.070;2023-11-18T03:13:04;42.64;40.53;44.10;;
66589;Laerm;53447;49.272;11.070;2023-11-18T03:15:29;42.52;40.59;43.89;;
66589;Laerm;53447;49.272;11.070;2023-11-18T03:17:54;40.44;32.40;43.73;;
66589;Laerm;53447;49.272;11.070;2023-11-18T03:20:22;38.42;32.81;41.38;;
66589;Laerm;53447;49.272;11.070;2023-11-18T03:22:48;38.50;33.19;44.68;;
66589;Laerm;53447;49.272;11.070;2023-11-18T03:25:14;38.55;33.54;41.32;;
66589;Laerm;53447;49.272;11.070;2023-11-18T03:27:40;38.73;33.19;41.48;;
66589;Laerm;53447;49.272;11.070;2023-11-18T03:30:05;41.17;34.16;43.26;;
66589;Laerm;53447;49.272;11.070;2023-11-18T03:32:37;41.72;37.71;43.33;;
66589;Laerm;53447;49.272;11.070;2023-11-18T03:35:03;40.47;33.54;44.10;;
66589;Laerm;53447;49.272;11.070;2023-11-18T03:37:32;38.86;33.19;42.04;;
66589;Laerm;53447;49.272;11.070;2023-11-18T03:39:57;38.71;32.81;41.59;;
66589;Laerm;53447;49.272;11.070;2023-11-18T03:42:22;38.76;32.40;41.69;;
66589;Laerm;53447;49.272;11.070;2023-11-18T03:44:47;38.80;33.54;41.69;;
66589;Laerm;53447;49.272;11.070;2023-11-18T03:47:13;40.81;33.54;44.36;;
66589;Laerm;53447;49.272;11.070;2023-11-18T03:49:39;39.53;33.54;43.95;;
66589;Laerm;53447;49.272;11.070;2023-11-18T03:52:04;39.20;33.19;43.23;;
66589;Laerm;53447;49.272;11.070;2023-11-18T03:54:30;41.83;37.71;43.47;;
66589;Laerm;53447;49.272;11.070;2023-11-18T03:56:56;41.37;34.95;43.26;;
66589;Laerm;53447;49.272;11.070;2023-11-18T03:59:21;38.51;32.81;41.48;;
66589;Laerm;53447;49.272;11.070;2023-11-18T04:01:46;38.64;33.19;42.13;;
66589;Laerm;53447;49.272;11.070;2023-11-18T04:04:13;39.05;34.44;41.99;;
66589;Laerm;53447;49.272;11.070;2023-11-18T04:06:39;38.77;32.81;41.79;;
66589;Laerm;53447;49.272;11.070;2023-11-18T04:09:04;38.71;33.19;41.64;;
66589;Laerm;53447;49.272;11.070;2023-11-18T04:11:30;40.05;33.54;43.40;;
66589;Laerm;53447;49.272;11.070;2023-11-18T04:13:56;39.03;33.54;41.99;;
66589;Laerm;53447;49.272;11.070;2023-11-18T04:16:21;40.03;33.19;43.51;;
66589;Laerm;53447;49.272;11.070;2023-11-18T04:18:46;41.88;38.20;43.51;;
66589;Laerm;53447;49.272;11.070;2023-11-18T04:21:12;41.65;33.86;43.98;;
66589;Laerm;53447;49.272;11.070;2023-11-18T04:23:38;38.68;34.16;41.59;;
66589;Laerm;53447;49.272;11.070;2023-11-18T04:26:04;40.03;34.44;43.08;;
66589;Laerm;53447;49.272;11.070;2023-11-18T04:28:29;39.03;34.16;42.13;;
66589;Laerm;53447;49.272;11.070;2023-11-18T04:30:55;38.64;33.19;42.08;;
66589;Laerm;53447;49.272;11.070;2023-11-18T04:33:20;38.56;32.81;41.69;;
66589;Laerm;53447;49.272;11.070;2023-11-18T04:35:45;38.67;33.19;41.79;;
66589;Laerm;53447;49.272;11.070;2023-11-18T04:38:11;40.00;33.86;43.67;;
66589;Laerm;53447;49.272;11.070;2023-11-18T04:40:36;39.77;34.16;43.12;;
66589;Laerm;53447;49.272;11.070;2023-11-18T04:43:03;41.27;33.86;44.04;;
66589;Laerm;53447;49.272;11.070;2023-11-18T04:45:29;42.01;38.42;43.95;;
66589;Laerm;53447;49.272;11.070;2023-11-18T04:47:55;40.74;33.54;43.30;;
66589;Laerm;53447;49.272;11.070;2023-11-18T04:50:20;39.78;33.54;43.51;;
66589;Laerm;53447;49.272;11.070;2023-11-18T04:52:46;39.41;33.86;43.08;;
66589;Laerm;53447;49.272;11.070;2023-11-18T04:55:11;39.91;33.86;43.64;;
66589;Laerm;53447;49.272;11.070;2023-11-18T04:57:38;41.43;35.19;45.62;;
66589;Laerm;53447;49.272;11.070;2023-11-18T05:00:04;42.49;32.81;56.85;;
66589;Laerm;53447;49.272;11.070;2023-11-18T05:02:35;45.74;40.85;54.00;;
66589;Laerm;53447;49.272;11.070;2023-11-18T05:05:00;43.95;40.11;57.20;;
66589;Laerm;53447;49.272;11.070;2023-11-18T05:07:26;42.03;39.88;43.40;;
66589;Laerm;53447;49.272;11.070;2023-11-18T05:09:53;43.48;40.39;46.76;;
66589;Laerm;53447;49.272;11.070;2023-11-18T05:12:18;43.00;40.32;45.76;;
66589;Laerm;53447;49.272;11.070;2023-11-18T05:14:43;42.36;40.18;46.22;;
66589;Laerm;53447;49.272;11.070;2023-11-18T05:17:08;43.68;40.72;46.46;;
66589;Laerm;53447;49.272;11.070;2023-11-18T05:19:34;42.96;40.66;45.56;;
66589;Laerm;53447;49.272;11.070;2023-11-18T05:21:59;43.23;41.59;45.43;;
66589;Laerm;53447;49.272;11.070;2023-11-18T05:24:25;42.36;35.19;45.82;;
66589;Laerm;53447;49.272;11.070;2023-11-18T05:26:50;40.98;33.54;44.27;;
66589;Laerm;53447;49.272;11.070;2023-11-18T05:29:15;42.37;37.96;44.80;;
66589;Laerm;53447;49.272;11.070;2023-11-18T05:31:42;49.77;38.42;67.15;;
66589;Laerm;53447;49.272;11.070;2023-11-18T05:34:07;42.94;40.91;48.06;;
66589;Laerm;53447;49.272;11.070;2023-11-18T05:36:32;41.73;37.58;44.95;;
66589;Laerm;53447;49.272;11.070;2023-11-18T05:39:02;39.89;34.16;46.33;;
66589;Laerm;53447;49.272;11.070;2023-11-18T05:41:28;43.86;36.97;53.29;;
66589;Laerm;53447;49.272;11.070;2023-11-18T05:43:55;39.21;34.16;42.18;;
66589;Laerm;53447;49.272;11.070;2023-11-18T05:46:24;40.50;34.44;54.58;;
66589;Laerm;53447;49.272;11.070;2023-11-18T05:48:51;49.02;36.38;68.54;;
66589;Laerm;53447;49.272;11.070;2023-11-18T05:51:21;48.48;39.48;68.67;;
66589;Laerm;53447;49.272;11.070;2023-11-18T05:53:46;42.18;38.20;59.89;;
66589;Laerm;53447;49.272;11.070;2023-11-18T05:56:12;40.56;34.95;43.95;;
66589;Laerm;53447;49.272;11.070;2023-11-18T05:58:37;52.80;34.44;71.51;;
66589;Laerm;53447;49.272;11.070;2023-11-18T06:01:08;40.92;34.95;56.61;;
66589;Laerm;53447;49.272;11.070;2023-11-18T06:03:33;41.93;37.31;53.09;;
66589;Laerm;53447;49.272;11.070;2023-11-18T06:06:00;42.34;40.59;44.98;;
66589;Laerm;53447;49.272;11.070;2023-11-18T06:08:25;42.51;40.66;46.73;;
66589;Laerm;53447;49.272;11.070;2023-11-18T06:10:51;43.28;41.21;50.91;;
66589;Laerm;53447;49.272;11.070;2023-11-18T06:13:21;42.49;39.12;56.79;;
66589;Laerm;53447;49.272;11.070;2023-11-18T06:15:47;45.23;38.28;62.15;;
66589;Laerm;53447;49.272;11.070;2023-11-18T06:18:13;48.31;37.45;66.00;;
66589;Laerm;53447;49.272;11.070;2023-11-18T06:20:38;49.57;39.48;64.72;;
66589;Laerm;53447;49.272;11.070;2023-11-18T06:23:03;53.38;40.97;67.78;;
66589;Laerm;53447;49.272;11.070;2023-11-18T06:25:29;46.92;41.59;61.25;;
66589;Laerm;53447;49.272;11.070;2023-11-18T06:27:56;51.51;42.08;63.43;;
66589;Laerm;53447;49.272;11.070;2023-11-18T06:30:23;52.83;41.32;64.35;;
66589;Laerm;53447;49.272;11.070;2023-11-18T06:32:48;52.52;40.91;66.10;;
66589;Laerm;53447;49.272;11.070;2023-11-18T06:35:13;48.13;40.46;65.50;;
66589;Laerm;53447;49.272;11.070;2023-11-18T06:37:41;51.43;40.53;70.19;;
66589;Laerm;53447;49.272;11.070;2023-11-18T06:40:07;45.13;40.11;60.61;;
66589;Laerm;53447;49.272;11.070;2023-11-18T06:42:41;48.13;40.66;63.88;;
66589;Laerm;53447;49.272;11.070;2023-11-18T06:45:07;44.92;41.21;57.24;;
66589;Laerm;53447;49.272;11.070;2023-11-18T06:47:34;43.99;40.66;62.40;;
66589;Laerm;53447;49.272;11.070;2023-11-18T06:50:01;53.20;40.91;71.78;;
66589;Laerm;53447;49.272;11.070;2023-11-18T06:52:26;43.11;40.85;55.36;;
66589;Laerm;53447;49.272;11.070;2023-11-18T06:54:51;43.83;39.39;60.57;;
66589;Laerm;53447;49.272;11.070;2023-11-18T06:57:18;52.66;36.38;71.24;;
66589;Laerm;53447;49.272;11.070;2023-11-18T06:59:43;42.44;38.73;51.29;;
66589;Laerm;53447;49.272;11.070;2023-11-18T07:02:08;53.10;36.87;72.01;;
66589;Laerm;53447;49.272;11.070;2023-11-18T07:04:35;49.30;36.38;68.17;;
66589;Laerm;53447;49.272;11.070;2023-11-18T07:07:00;52.92;36.20;70.29;;
66589;Laerm;53447;49.272;11.070;2023-11-18T07:09:26;41.98;36.55;57.98;;
66589;Laerm;53447;49.272;11.070;2023-11-18T07:11:52;42.41;38.31;60.80;;
66589;Laerm;53447;49.272;11.070;2023-11-18T07:14:18;44.46;38.63;64.26;;
66589;Laerm;53447;49.272;11.070;2023-11-18T07:16:43;41.58;35.62;60.76;;
66589;Laerm;53447;49.272;11.070;2023-11-18T07:19:09;42.12;35.62;61.56;;
66589;Laerm;53447;49.272;11.070;2023-11-18T07:21:45;49.15;36.55;67.73;;
66589;Laerm;53447;49.272;11.070;2023-11-18T07:24:10;69.95;36.55;93.26;;
66589;Laerm;53447;49.272;11.070;2023-11-18T07:26:36;45.11;36.38;65.50;;
66589;Laerm;53447;49.272;11.070;2023-11-18T07:29:01;46.89;38.08;62.79;;
66589;Laerm;53447;49.272;11.070;2023-11-18T07:31:26;43.53;39.21;65.32;;
66589;Laerm;53447;49.272;11.070;2023-11-18T07:33:53;44.04;38.83;62.65;;
66589;Laerm;53447;49.272;11.070;2023-11-18T07:36:19;43.09;37.31;62.41;;
66589;Laerm;53447;49.272;11.070;2023-11-18T07:38:46;44.87;37.02;68.54;;
66589;Laerm;53447;49.272;11.070;2023-11-18T07:41:11;41.11;37.45;49.97;;
66589;Laerm;53447;49.272;11.070;2023-11-18T07:43:48;52.08;36.71;71.63;;
66589;Laerm;53447;49.272;11.070;2023-11-18T07:46:13;50.25;37.02;68.35;;
66589;Laerm;53447;49.272;11.070;2023-11-18T07:48:39;53.41;36.55;72.23;;
66589;Laerm;53447;49.272;11.070;2023-11-18T07:51:04;42.03;36.55;52.81;;
66589;Laerm;53447;49.272;11.070;2023-11-18T07:53:29;43.84;39.21;60.28;;
66589;Laerm;53447;49.272;11.070;2023-11-18T07:55:55;42.34;38.42;57.62;;
66589;Laerm;53447;49.272;11.070;2023-11-18T07:58:20;41.17;36.87;54.54;;
66589;Laerm;53447;49.272;11.070;2023-11-18T08:00:48;42.73;40.25;57.71;;
66589;Laerm;53447;49.272;11.070;2023-11-18T08:03:14;42.57;40.79;57.32;;
66589;Laerm;53447;49.272;11.070;2023-11-18T08:05:40;43.25;40.32;60.09;;
66589;Laerm;53447;49.272;11.070;2023-11-18T08:08:08;46.13;40.66;67.12;;
66589;Laerm;53447;49.272;11.070;2023-11-18T08:10:35;43.10;40.32;58.13;;
66589;Laerm;53447;49.272;11.070;2023-11-18T08:13:06;50.71;40.92;69.49;;
66589;Laerm;53447;49.272;11.070;2023-11-18T08:15:33;42.66;40.72;55.99;;
66589;Laerm;53447;49.272;11.070;2023-11-18T08:17:58;54.25;40.53;75.23;;
66589;Laerm;53447;49.272;11.070;2023-11-18T08:20:24;42.85;40.18;56.02;;
66589;Laerm;53447;49.272;11.070;2023-11-18T08:22:50;42.97;40.56;59.38;;
66589;Laerm;53447;49.272;11.070;2023-11-18T08:25:15;43.52;38.73;60.60;;
66589;Laerm;53447;49.272;11.070;2023-11-18T08:27:42;42.86;38.31;63.00;;
66589;Laerm;53447;49.272;11.070;2023-11-18T08:30:08;53.46;38.08;69.50;;
66589;Laerm;53447;49.272;11.070;2023-11-18T08:32:37;41.96;37.84;59.06;;
66589;Laerm;53447;49.272;11.070;2023-11-18T08:35:04;43.49;40.97;53.77;;
66589;Laerm;53447;49.272;11.070;2023-11-18T08:37:31;45.63;41.09;56.08;;
66589;Laerm;53447;49.272;11.070;2023-11-18T08:39:56;53.17;40.39;71.91;;
66589;Laerm;53447;49.272;11.070;2023-11-18T08:42:21;45.92;39.96;66.67;;
66589;Laerm;53447;49.272;11.070;2023-11-18T08:44:47;43.01;40.46;53.56;;
66589;Laerm;53447;49.272;11.070;2023-11-18T08:47:13;42.92;39.80;55.00;;
66589;Laerm;53447;49.272;11.070;2023-11-18T08:49:38;44.86;40.11;62.81;;
66589;Laerm;53447;49.272;11.070;2023-11-18T08:52:05;47.76;40.18;72.40;;
66589;Laerm;53447;49.272;11.070;2023-11-18T08:54:35;50.87;40.53;69.40;;
66589;Laerm;53447;49.272;11.070;2023-11-18T08:57:05;57.94;35.62;79.94;;
66589;Laerm;53447;49.272;11.070;2023-11-18T08:59:50;42.71;34.95;55.58;;
66589;Laerm;53447;49.272;11.070;2023-11-18T09:02:17;54.76;36.38;71.95;;
66589;Laerm;53447;49.272;11.070;2023-11-18T09:04:42;43.80;37.24;58.27;;
66589;Laerm;53447;49.272;11.070;2023-11-18T09:07:08;49.39;36.71;68.99;;
66589;Laerm;53447;49.272;11.070;2023-11-18T09:09:35;42.90;36.38;56.24;;
66589;Laerm;53447;49.272;11.070;2023-11-18T09:12:00;43.49;38.63;60.88;;
66589;Laerm;53447;49.272;11.070;2023-11-18T09:14:27;49.41;39.64;66.69;;
66589;Laerm;53447;49.272;11.070;2023-11-18T09:16:53;41.48;35.41;56.06;;
66589;Laerm;53447;49.272;11.070;2023-11-18T09:19:24;41.81;34.44;54.83;;
66589;Laerm;53447;49.272;11.070;2023-11-18T09:21:49;44.23;36.55;62.07;;
66589;Laerm;53447;49.272;11.070;2023-11-18T09:24:16;43.85;35.41;55.65;;
66589;Laerm;53447;49.272;11.070;2023-11-18T09:26:44;49.56;34.70;66.62;;
66589;Laerm;53447;49.272;11.070;2023-11-18T09:29:12;42.37;35.82;55.60;;
66589;Laerm;53447;49.272;11.070;2023-11-18T09:31:38;42.36;38.31;52.10;;
66589;Laerm;53447;49.272;11.070;2023-11-18T09:34:07;43.62;37.71;57.40;;
66589;Laerm;53447;49.272;11.070;2023-11-18T09:36:40;42.47;34.16;59.40;;
66589;Laerm;53447;49.272;11.070;2023-11-18T09:39:08;51.56;34.44;69.65;;
66589;Laerm;53447;49.272;11.070;2023-11-18T09:41:33;53.66;37.17;72.87;;
66589;Laerm;53447;49.272;11.070;2023-11-18T09:44:00;43.20;34.16;58.51;;
66589;Laerm;53447;49.272;11.070;2023-11-18T09:46:27;41.90;34.44;58.58;;
66589;Laerm;53447;49.272;11.070;2023-11-18T09:51:39;44.18;35.82;61.01;;
66589;Laerm;53447;49.272;11.070;2023-11-18T09:54:09;44.57;37.71;66.83;;
66589;Laerm;53447;49.272;11.070;2023-11-18T09:57:27;52.35;34.16;72.28;;
66589;Laerm;53447;49.272;11.070;2023-11-18T09:59:35;53.73;34.95;70.87;;
66589;Laerm;53447;49.272;11.070;2023-11-18T10:02:08;48.13;34.44;65.21;;
66589;Laerm;53447;49.272;11.070;2023-11-18T10:04:35;50.21;36.71;67.61;;
66589;Laerm;53447;49.272;11.070;2023-11-18T10:07:02;55.83;35.19;73.97;;
66589;Laerm;53447;49.272;11.070;2023-11-18T10:09:28;52.36;35.19;69.96;;
66589;Laerm;53447;49.272;11.070;2023-11-18T10:11:54;54.55;37.02;71.02;;
66589;Laerm;53447;49.272;11.070;2023-11-18T10:14:25;41.99;36.20;54.08;;
66589;Laerm;53447;49.272;11.070;2023-11-18T10:16:51;43.47;38.20;58.85;;
66589;Laerm;53447;49.272;11.070;2023-11-18T10:19:19;43.93;39.88;54.63;;
66589;Laerm;53447;49.272;11.070;2023-11-18T10:21:44;54.22;36.03;72.92;;
66589;Laerm;53447;49.272;11.070;2023-11-18T10:24:14;43.32;35.19;55.19;;
66589;Laerm;53447;49.272;11.070;2023-11-18T10:26:40;43.16;38.42;52.99;;
66589;Laerm;53447;49.272;11.070;2023-11-18T10:29:05;41.22;35.62;54.08;;
66589;Laerm;53447;49.272;11.070;2023-11-18T10:31:32;49.34;36.55;66.94;;
66589;Laerm;53447;49.272;11.070;2023-11-18T10:34:00;52.48;37.02;71.35;;
66589;Laerm;53447;49.272;11.070;2023-11-18T10:36:25;43.69;36.20;58.45;;
66589;Laerm;53447;49.272;11.070;2023-11-18T10:38:52;45.84;38.53;67.96;;
66589;Laerm;53447;49.272;11.070;2023-11-18T10:41:20;51.77;37.02;69.12;;
66589;Laerm;53447;49.272;11.070;2023-11-18T10:43:46;52.48;35.41;72.39;;
66589;Laerm;53447;49.272;11.070;2023-11-18T10:46:13;43.31;36.52;66.29;;
66589;Laerm;53447;49.272;11.070;2023-11-18T10:51:08;52.00;42.08;65.45;;
66589;Laerm;53447;49.272;11.070;2023-11-18T10:53:33;52.80;36.55;62.88;;
66589;Laerm;53447;49.272;11.070;2023-11-18T10:56:02;52.50;34.95;72.13;;
66589;Laerm;53447;49.272;11.070;2023-11-18T10:58:34;51.92;35.19;69.13;;
66589;Laerm;53447;49.272;11.070;2023-11-18T11:01:00;55.24;42.31;69.63;;
66589;Laerm;53447;49.272;11.070;2023-11-18T11:03:25;50.93;43.30;59.57;;
66589;Laerm;53447;49.272;11.070;2023-11-18T11:05:51;49.66;38.93;58.03;;
66589;Laerm;53447;49.272;11.070;2023-11-18T11:08:19;50.23;42.27;60.57;;
66589;Laerm;53447;49.272;11.070;2023-11-18T11:10:45;50.80;43.08;57.45;;
66589;Laerm;53447;49.272;11.070;2023-11-18T11:13:10;51.98;43.26;57.74;;
66589;Laerm;53447;49.272;11.070;2023-11-18T11:15:40;48.99;39.21;65.59;;
66589;Laerm;53447;49.272;11.070;2023-11-18T11:18:08;48.44;43.01;60.41;;
66589;Laerm;53447;49.272;11.070;2023-11-18T11:21:43;53.02;43.08;70.08;;
66589;Laerm;53447;49.272;11.070;2023-11-18T11:23:50;48.11;42.44;67.19;;
66589;Laerm;53447;49.272;11.070;2023-11-18T11:29:04;44.16;38.73;55.88;;
66589;Laerm;53447;49.272;11.070;2023-11-18T11:34:17;50.96;37.71;68.77;;
66589;Laerm;53447;49.272;11.070;2023-11-18T11:36:48;50.95;38.08;69.86;;
66589;Laerm;53447;49.272;11.070;2023-11-18T11:39:18;42.82;37.96;58.39;;
66589;Laerm;53447;49.272;11.070;2023-11-18T11:41:50;49.23;39.12;67.88;;
66589;Laerm;53447;49.272;11.070;2023-11-18T11:44:24;51.14;35.82;68.37;;
66589;Laerm;53447;49.272;11.070;2023-11-18T11:46:54;42.08;35.62;56.50;;
66589;Laerm;53447;49.272;11.070;2023-11-18T11:49:20;52.46;36.02;70.50;;
66589;Laerm;53447;49.272;11.070;2023-11-18T11:54:16;42.13;37.17;50.53;;
66589;Laerm;53447;49.272;11.070;2023-11-18T11:56:46;53.96;36.20;75.20;;
66589;Laerm;53447;49.272;11.070;2023-11-18T11:59:35;49.48;38.42;64.25;;
66589;Laerm;53447;49.272;11.070;2023-11-18T12:02:02;42.32;33.86;63.60;;
66589;Laerm;53447;49.272;11.070;2023-11-18T12:04:32;43.34;37.17;67.68;;
66589;Laerm;53447;49.272;11.070;2023-11-18T12:06:58;44.31;36.55;66.63;;
66589;Laerm;53447;49.272;11.070;2023-11-18T12:09:30;40.76;33.51;61.99;;
66589;Laerm;53447;49.272;11.070;2023-11-18T12:11:58;53.77;33.86;72.73;;
66589;Laerm;53447;49.272;11.070;2023-11-18T12:14:24;48.53;41.64;65.96;;
66589;Laerm;53447;49.272;11.070;2023-11-18T12:17:01;46.91;41.48;55.30;;
66589;Laerm;53447;49.272;11.070;2023-11-18T12:19:37;50.13;41.59;72.35;;
66589;Laerm;53447;49.272;11.070;2023-11-18T12:22:12;48.82;41.54;70.61;;
66589;Laerm;53447;49.272;11.070;2023-11-18T12:27:44;54.04;40.59;72.39;;
66589;Laerm;53447;49.272;11.070;2023-11-18T12:35:29;49.56;44.16;67.28;;
66589;Laerm;53447;49.272;11.070;2023-11-18T12:40:52;44.85;35.41;60.91;;
66589;Laerm;53447;49.272;11.070;2023-11-18T12:43:24;54.18;37.96;72.62;;
66589;Laerm;53447;49.272;11.070;2023-11-18T12:48:31;40.62;34.70;58.72;;
66589;Laerm;53447;49.272;11.070;2023-11-18T12:50:57;56.26;34.70;74.30;;
66589;Laerm;53447;49.272;11.070;2023-11-18T12:53:25;54.05;35.82;73.12;;
66589;Laerm;53447;49.272;11.070;2023-11-18T12:55:52;55.18;35.82;73.07;;
66589;Laerm;53447;49.272;11.070;2023-11-18T12:58:17;41.37;35.19;57.69;;
66589;Laerm;53447;49.272;11.070;2023-11-18T13:00:43;40.01;35.19;43.04;;
66589;Laerm;53447;49.272;11.070;2023-11-18T13:03:09;41.34;36.55;58.52;;
66589;Laerm;53447;49.272;11.070;2023-11-18T13:05:35;46.23;38.73;63.48;;
66589;Laerm;53447;49.272;11.070;2023-11-18T13:08:02;42.15;37.17;50.38;;
66589;Laerm;53447;49.272;11.070;2023-11-18T13:10:27;43.25;37.31;57.07;;
66589;Laerm;53447;49.272;11.070;2023-11-18T13:12:55;41.48;35.62;58.28;;
66589;Laerm;53447;49.272;11.070;2023-11-18T13:15:20;44.01;36.37;57.20;;
66589;Laerm;53447;49.272;11.070;2023-11-18T13:17:59;49.79;34.95;69.24;;
66589;Laerm;53447;49.272;11.070;2023-11-18T13:20:25;66.09;34.44;89.25;;
66589;Laerm;53447;49.272;11.070;2023-11-18T13:22:51;51.03;34.70;71.00;;
66589;Laerm;53447;49.272;11.070;2023-11-18T13:25:17;48.11;36.38;65.48;;
66589;Laerm;53447;49.272;11.070;2023-11-18T13:27:42;42.32;35.62;63.86;;
66589;Laerm;53447;49.272;11.070;2023-11-18T13:30:08;45.89;40.39;57.46;;
66589;Laerm;53447;49.272;11.070;2023-11-18T13:32:40;50.10;37.96;67.70;;
66589;Laerm;53447;49.272;11.070;2023-11-18T13:35:05;44.77;40.85;61.32;;
66589;Laerm;53447;49.272;11.070;2023-11-18T13:37:32;51.58;38.93;69.26;;
66589;Laerm;53447;49.272;11.070;2023-11-18T13:39:57;58.51;45.32;73.07;;
66589;Laerm;53447;49.272;11.070;2023-11-18T13:42:26;48.93;41.48;71.91;;
66589;Laerm;53447;49.272;11.070;2023-11-18T13:44:53;47.27;39.56;63.39;;
66589;Laerm;53447;49.272;11.070;2023-11-18T13:47:19;49.57;40.79;63.53;;
66589;Laerm;53447;49.272;11.070;2023-11-18T13:49:44;50.87;37.02;62.89;;
66589;Laerm;53447;49.272;11.070;2023-11-18T13:52:10;51.41;41.94;62.41;;
66589;Laerm;53447;49.272;11.070;2023-11-18T13:54:37;51.72;41.94;66.44;;
66589;Laerm;53447;49.272;11.070;2023-11-18T13:57:03;53.04;40.66;71.34;;